• Join FlightAware (Why Join?)
  • Login
  • US Flag 
12:37PM EDT


 

Airport Tracker/Info


-or-


 

Live Flight TrackerFlight Track Log ✈ N28SP ✈ 05-Sep-2013 ✈ KRFD - CYYR

Flight Track Log - Related Links

Times and Time Zones

All times are in EDT time to prevent confusion due to time zone crossing. See the N28SP flight status page for this flight to view local times or setup timezone preferences in your user account.

Time Position Orientation Groundspeed Altitude Reporting Facility
EDT Latitude Longitude Course Direction KTS MPH feet Rate Location/Type
04:06PM 42.2158 -89.0456 67° East 199 229 3,100  Level Chicago Center
04:07PM 42.2403 -88.9664 67° East 227 261 6,800 3,300 Climbing Chicago Center
04:08PM 42.2392 -88.8911 91° East 214 246 10,000 2,820 Climbing Chicago Center
04:09PM 42.2386 -88.8197 91° East 194 223 12,700 2,040 Climbing Chicago Center
04:10PM 42.2372 -88.7453 91° East 197 227 14,300 1,680 Climbing Chicago Center
04:11PM 42.2369 -88.6553 90° East 233 268 16,200 1,980 Climbing Chicago Center
04:12PM 42.2350 -88.5467 91° East 243 280 18,500 2,040 Climbing Chicago Center
04:13PM 42.2333 -88.4519 91° East 251 289 20,500 1,740 Climbing Chicago Center
04:14PM 42.2306 -88.3561 92° East 253 291 22,200 1,620 Climbing Chicago Center
04:15PM 42.2292 -88.2578 91° East 260 299 23,900 1,500 Climbing Chicago Center
04:16PM 42.2269 -88.1558 92° East 267 307 25,400 1,620 Climbing Chicago Center
04:17PM 42.2228 -88.0250 92° East 286 329 27,300 1,620 Climbing Chicago Center
04:18PM 42.2258 -87.9169 88° East 291 335 28,800 1,560 Climbing Chicago Center
04:19PM 42.2419 -87.8136 78° East 282 325 30,600 1,500 Climbing Chicago Center
04:20PM 42.2556 -87.7117 80° East 277 319 32,000 1,140 Climbing Chicago Center
04:21PM 42.2689 -87.6100 80° East 276 318 33,000 960 Climbing Chicago Center
04:22PM 42.2842 -87.5033 79° East 287 330 34,100 960 Climbing Chicago Center
04:23PM 42.3028 -87.3728 79° East 295 339 35,100 1,080 Climbing Chicago Center
04:24PM 42.3175 -87.2589 80° East 305 351 36,400 1,080 Climbing Chicago Center
04:25PM 42.3319 -87.1511 80° East 296 341 37,400 960 Climbing Chicago Center
04:26PM 42.3467 -87.0444 79° East 291 335 38,400 720 Climbing Chicago Center
04:27PM 42.3606 -86.9375 80° East 291 335 39,000 240 Climbing Chicago Center
04:29PM 42.3772 -86.7981 81° East 314 361 39,000  Level Chicago Center
04:30PM 42.3944 -86.6717 80° East 339 390 39,000  Level Chicago Center
04:31PM 42.4122 -86.5331 80° East 360 414 39,000  Level Chicago Center
04:32PM 42.4297 -86.3944 80° East 374 430 39,000  Level Chicago Center
04:33PM 42.4472 -86.2522 80° East 383 441 39,000  Level Chicago Center
04:34PM 42.4656 -86.1094 80° East 389 448 39,000  Level Chicago Center
04:35PM 42.4958 -85.9717 73° East 386 444 39,000  Level Chicago Center
04:36PM 42.5311 -85.8067 74° East 384 442 39,000  Level Chicago Center
04:37PM 42.5617 -85.6703 73° East 383 441 39,000  Level Chicago Center
04:38PM 42.5917 -85.5325 73° East 383 441 39,000  Level Chicago Center
04:39PM 42.6217 -85.3967 73° East 380 437 39,000  Level Chicago Center
04:40PM 42.6503 -85.2597 74° East 379 436 39,000  Level Chicago Center
04:41PM 42.6864 -85.0958 73° East 379 436 39,000  Level Chicago Center
04:42PM 42.7158 -84.9586 74° East 380 437 39,000  Level Chicago Center
04:43PM 42.7444 -84.8214 74° East 380 437 39,000  Level Chicago Center
04:44PM 42.7747 -84.6825 73° East 383 441 39,000  Level Chicago Center
04:45PM 42.8047 -84.5444 73° East 384 442 39,000  Level Chicago Center
04:46PM 42.8394 -84.3758 74° East 385 443 39,000  Level Chicago Center
04:47PM 42.8672 -84.2361 75° East 385 443 39,000  Level Chicago Center
04:48PM 42.8869 -84.1311 76° East 372 428 39,000  Level Cleveland Center
04:49PM 42.9164 -83.9911 74° East 377 434 39,000  Level Cleveland Center
04:50PM 42.9456 -83.8478 74° East 377 434 39,000  Level Cleveland Center
04:51PM 42.9681 -83.7044 78° East 377 434 39,000  Level Cleveland Center
04:52PM 42.9744 -83.5486 87° East 382 440 39,000  Level Cleveland Center
04:53PM 42.9803 -83.4014 87° East 388 447 39,000  Level Cleveland Center
04:54PM 42.9836 -83.2511 88° East 388 447 39,000  Level Cleveland Center
04:55PM 42.9892 -83.0981 87° East 393 452 39,000  Level Cleveland Center
04:56PM 42.9944 -82.9447 87° East 398 458 39,000  Level Cleveland Center
04:57PM 42.9997 -82.7944 87° East 398 458 39,000  Level Cleveland Center
04:58PM 43.0025 -82.6414 89° East 403 464 39,000  Level Cleveland Center
04:59PM 43.0092 -82.4911 86° East 403 464 39,000  Level Cleveland Center
05:00PM 43.0000 -82.2500 93° East 400 460 39,000  Level Toronto Center
05:01PM 43.0000 -82.1000 90° East 400 460 39,000  Level Toronto Center
05:02PM 43.0000 -81.9333 90° East 400 460 39,000  Level Toronto Center
05:03PM 43.0167 -81.8000 80° East 400 460 39,000  Level Toronto Center
05:04PM 43.0167 -81.6333 90° East 400 460 39,000  Level Toronto Center
05:05PM 43.0167 -81.4833 90° East 410 472 39,000  Level Toronto Center
05:06PM 43.0167 -81.3167 90° East 410 472 39,000  Level Toronto Center
05:07PM 43.0167 -81.1833 90° East 410 472 39,000  Level Toronto Center
05:08PM 43.0833 -81.0500 56° Northeast 380 437 39,000  Level Toronto Center
05:09PM 43.1500 -80.9667 42° Northeast 370 426 39,000  Level Toronto Center
05:10PM 43.2167 -80.8500 52° Northeast 370 426 39,000  Level Toronto Center
05:11PM 43.3000 -80.7500 41° Northeast 370 426 39,000  Level Toronto Center
05:12PM 43.3667 -80.6500 47° Northeast 370 426 39,000  Level Toronto Center
05:13PM 43.4333 -80.5333 52° Northeast 370 426 39,000  Level Toronto Center
05:14PM 43.5000 -80.4333 47° Northeast 370 426 39,000  Level Toronto Center
05:15PM 43.5667 -80.3500 42° Northeast 370 426 39,000  Level Toronto Center
05:16PM 43.6333 -80.2333 52° Northeast 360 414 39,000  Level Toronto Center
05:17PM 43.7000 -80.1167 52° Northeast 360 414 39,000  Level Toronto Center
05:18PM 43.7667 -80.0333 42° Northeast 360 414 39,000  Level Toronto Center
05:19PM 43.8333 -79.9333 47° Northeast 360 414 39,000  Level Toronto Center
05:20PM 43.9000 -79.8167 52° Northeast 360 414 39,000  Level Toronto Center
05:21PM 43.9667 -79.7333 42° Northeast 360 414 39,000  Level Toronto Center
05:22PM 44.0333 -79.5833 58° Northeast 370 426 39,000  Level Toronto Center
05:23PM 44.0833 -79.4667 59° Northeast 370 426 39,000  Level Toronto Center
05:24PM 44.1333 -79.3500 59° Northeast 370 426 39,000  Level Toronto Center
05:25PM 44.1833 -79.2333 59° Northeast 370 426 39,000  Level Toronto Center
05:26PM 44.2333 -79.1167 59° Northeast 370 426 39,000  Level Toronto Center
05:27PM 44.3000 -79.0000 51° Northeast 360 414 39,000  Level Toronto Center
05:28PM 44.3500 -78.8833 59° Northeast 360 414 39,000  Level Toronto Center
05:29PM 44.4000 -78.7500 62° Northeast 360 414 39,000  Level Toronto Center
05:30PM 44.4500 -78.6333 59° Northeast 360 414 39,000  Level Toronto Center
05:31PM 44.5000 -78.5167 59° Northeast 360 414 39,000  Level Toronto Center
05:32PM 44.5500 -78.4000 59° Northeast 360 414 39,000  Level Toronto Center
05:33PM 44.6000 -78.2667 62° Northeast 350 403 39,000  Level Toronto Center
05:34PM 44.6500 -78.1500 59° Northeast 350 403 39,000  Level Toronto Center
05:35PM 44.7000 -78.0667 50° Northeast 340 391 39,000  Level Toronto Center
05:36PM 44.7333 -78.0167 47° Northeast 340 391 39,000  Level Montreal Center
05:37PM 44.7833 -77.9000 59° Northeast 340 391 39,000  Level Montreal Center
05:38PM 44.8167 -77.7833 68° East 340 391 39,000  Level Montreal Center
05:39PM 44.8833 -77.6667 51° Northeast 340 391 39,000  Level Montreal Center
05:40PM 44.9333 -77.5500 59° Northeast 340 391 39,000  Level Montreal Center
05:41PM 44.9833 -77.4333 59° Northeast 340 391 39,000  Level Montreal Center
05:42PM 45.0167 -77.3500 60° Northeast 340 391 39,000  Level Montreal Center
05:43PM 45.0667 -77.2000 65° Northeast 340 391 39,000  Level Montreal Center
05:44PM 45.1167 -77.0833 59° Northeast 350 403 39,000  Level Montreal Center
05:45PM 45.1667 -76.9667 59° Northeast 350 403 39,000  Level Montreal Center
05:46PM 45.2167 -76.8500 59° Northeast 350 403 39,000  Level Montreal Center
05:47PM 45.2667 -76.7333 59° Northeast 350 403 39,000  Level Montreal Center
05:48PM 45.3167 -76.6167 59° Northeast 350 403 39,000  Level Montreal Center
05:49PM 45.3667 -76.5000 59° Northeast 350 403 39,000  Level Montreal Center
05:50PM 45.4167 -76.4000 55° Northeast 340 391 39,000  Level Montreal Center
05:51PM 45.5000 -76.2833 44° Northeast 340 391 39,000  Level Montreal Center
05:52PM 45.5500 -76.1667 59° Northeast 350 403 39,000  Level Montreal Center
05:53PM 45.6000 -76.0667 54° Northeast 350 403 39,000  Level Montreal Center
05:54PM 45.6667 -75.9500 51° Northeast 350 403 39,000  Level Montreal Center
05:55PM 45.7167 -75.8500 54° Northeast 350 403 39,000  Level Montreal Center
05:56PM 45.7833 -75.7333 51° Northeast 350 403 39,000  Level Montreal Center
05:57PM 45.8333 -75.6000 62° Northeast 350 403 39,000  Level Montreal Center
05:58PM 45.9000 -75.5167 41° Northeast 350 403 39,000  Level Montreal Center
05:59PM 45.9500 -75.3833 62° Northeast 350 403 39,000  Level Montreal Center
06:00PM 46.0000 -75.2667 58° Northeast 350 403 39,000  Level Montreal Center
06:01PM 46.0667 -75.1500 51° Northeast 350 403 39,000  Level Montreal Center
06:02PM 46.1167 -75.0500 54° Northeast 350 403 39,000  Level Montreal Center
06:03PM 46.1667 -74.9333 58° Northeast 350 403 39,000  Level Montreal Center
06:04PM 46.2167 -74.8000 62° Northeast 350 403 39,000  Level Montreal Center
06:05PM 46.2833 -74.7000 46° Northeast 350 403 39,000  Level Montreal Center
06:06PM 46.3333 -74.5833 58° Northeast 340 391 39,000  Level Montreal Center
06:07PM 46.4000 -74.4833 46° Northeast 340 391 39,000  Level Montreal Center
06:08PM 46.4667 -74.3833 46° Northeast 340 391 39,000  Level Montreal Center
06:09PM 46.5333 -74.2833 46° Northeast 340 391 39,000  Level Montreal Center
06:10PM 46.6000 -74.1833 46° Northeast 340 391 39,000  Level Montreal Center
06:11PM 46.6667 -74.0833 46° Northeast 340 391 39,000  Level Montreal Center
06:12PM 46.7333 -73.9833 46° Northeast 350 403 39,000  Level Montreal Center
06:13PM 46.8000 -73.8667 50° Northeast 350 403 39,000  Level Montreal Center
06:14PM 46.8667 -73.7667 46° Northeast 350 403 39,000  Level Montreal Center
06:15PM 46.9333 -73.6500 50° Northeast 350 403 39,000  Level Montreal Center
06:16PM 46.9833 -73.5500 54° Northeast 350 403 39,000  Level Montreal Center
06:17PM 47.0500 -73.4500 46° Northeast 350 403 39,000  Level Montreal Center
06:18PM 47.1167 -73.3333 50° Northeast 350 403 39,000  Level Montreal Center
06:19PM 47.1833 -73.2333 46° Northeast 350 403 39,000  Level Montreal Center
06:20PM 47.2500 -73.1167 50° Northeast 350 403 39,000  Level Montreal Center
06:21PM 47.3167 -73.0167 45° Northeast 350 403 39,000  Level Montreal Center
06:22PM 47.3833 -72.9000 50° Northeast 350 403 39,000  Level Montreal Center
06:23PM 47.4333 -72.7833 58° Northeast 350 403 39,000  Level Montreal Center
06:24PM 47.5000 -72.6833 45° Northeast 350 403 39,000  Level Montreal Center
06:25PM 47.5667 -72.5500 53° Northeast 350 403 39,000  Level Montreal Center
06:26PM 47.6333 -72.4500 45° Northeast 350 403 39,000  Level Montreal Center
06:27PM 47.7000 -72.3500 45° Northeast 350 403 39,000  Level Montreal Center
06:28PM 47.7667 -72.2500 45° Northeast 360 414 39,000  Level Montreal Center
06:29PM 47.8333 -72.1167 53° Northeast 360 414 39,000  Level Montreal Center
06:30PM 47.9000 -72.0000 50° Northeast 350 403 39,000  Level Montreal Center
06:31PM 47.9667 -71.9000 45° Northeast 350 403 39,000  Level Montreal Center
06:32PM 48.0333 -71.8000 45° Northeast 360 414 39,000  Level Montreal Center
06:33PM 48.1000 -71.6667 53° Northeast 360 414 39,000  Level Montreal Center
06:34PM 48.1500 -71.5500 57° Northeast 350 403 39,000  Level Montreal Center
06:35PM 48.2167 -71.4500 45° Northeast 360 414 39,000  Level Montreal Center
06:36PM 48.2833 -71.3167 53° Northeast 360 414 39,000  Level Montreal Center
06:37PM 48.3500 -71.2167 45° Northeast 360 414 39,000  Level Montreal Center
06:38PM 48.4000 -71.1000 57° Northeast 360 414 39,000  Level Montreal Center
06:39PM 48.4833 -71.0000 38° Northeast 360 414 39,000  Level Montreal Center
06:40PM 48.5500 -70.8667 53° Northeast 360 414 39,000  Level Montreal Center
06:41PM 48.6000 -70.7500 57° Northeast 370 426 39,000  Level Montreal Center
06:42PM 48.6667 -70.6167 53° Northeast 370 426 39,000  Level Montreal Center
06:43PM 48.7500 -70.5167 38° Northeast 370 426 39,000  Level Montreal Center
06:44PM 48.8167 -70.4000 49° Northeast 370 426 39,000  Level Montreal Center
06:45PM 48.8667 -70.2667 60° Northeast 370 426 39,000  Level Montreal Center
06:46PM 48.9333 -70.1500 49° Northeast 370 426 39,000  Level Montreal Center
06:47PM 49.0000 -70.0500 45° Northeast 370 426 39,000  Level Montreal Center
06:48PM 49.0500 -69.9000 63° Northeast 370 426 39,000  Level Montreal Center
06:49PM 49.1333 -69.8000 38° Northeast 360 414 39,000  Level Montreal Center
06:50PM 49.1833 -69.6500 63° Northeast 370 426 39,000  Level Montreal Center
06:51PM 49.2500 -69.5500 44° Northeast 360 414 39,000  Level Montreal Center
06:52PM 49.3167 -69.4333 49° Northeast 360 414 39,000  Level Montreal Center
06:53PM 49.3667 -69.3000 60° Northeast 360 414 39,000  Level Montreal Center
06:54PM 49.4500 -69.1833 42° Northeast 360 414 39,000  Level Montreal Center
06:55PM 49.5167 -69.0500 52° Northeast 370 426 39,000  Level Montreal Center
06:56PM 49.5667 -68.9333 57° Northeast 360 414 39,000  Level Montreal Center
06:57PM 49.6333 -68.8000 52° Northeast 360 414 39,000  Level Montreal Center
06:58PM 49.6833 -68.6833 56° Northeast 360 414 39,000  Level Montreal Center
06:59PM 49.7667 -68.5667 42° Northeast 370 426 39,000  Level Montreal Center
07:00PM 49.8167 -68.4167 63° Northeast 370 426 39,000  Level Montreal Center
07:01PM 49.8833 -68.3000 48° Northeast 370 426 39,000  Level Montreal Center
07:02PM 49.9333 -68.1667 60° Northeast 370 426 39,000  Level Montreal Center
07:03PM 50.0167 -68.0500 42° Northeast 370 426 39,000  Level Montreal Center
07:04PM 50.0667 -67.9000 63° Northeast 370 426 39,000  Level Montreal Center
07:05PM 50.1333 -67.8000 44° Northeast 370 426 39,000  Level Montreal Center
07:06PM 50.2000 -67.6500 55° Northeast 370 426 39,000  Level Montreal Center
07:07PM 50.2667 -67.5333 48° Northeast 370 426 39,000  Level Montreal Center
07:08PM 50.3167 -67.4167 56° Northeast 370 426 39,000  Level Montreal Center
07:09PM 50.4000 -67.2667 49° Northeast 370 426 39,000  Level Montreal Center
07:10PM 50.4500 -67.1500 56° Northeast 370 426 39,000  Level Montreal Center
07:11PM 50.5167 -67.0000 55° Northeast 370 426 39,000  Level Montreal Center
07:12PM 50.5667 -66.8833 56° Northeast 370 426 39,000  Level Montreal Center
07:12PM 50.6000 -66.8500 32° Northeast 370 426 39,000  Level Moncton Center
07:13PM 50.6500 -66.7333 56° Northeast 370 426 39,000  Level Montreal Center
07:14PM 50.7000 -66.6167 56° Northeast 370 426 39,000  Level Montreal Center
07:15PM 50.7500 -66.4833 59° Northeast 370 426 39,000  Level Montreal Center
07:16PM 50.8333 -66.3500 45° Northeast 370 426 39,000  Level Montreal Center
07:17PM 50.8833 -66.2167 59° Northeast 370 426 39,000  Level Montreal Center
07:18PM 50.9667 -66.0833 45° Northeast 380 437 39,000  Level Montreal Center
07:19PM 51.0167 -65.9333 62° Northeast 380 437 39,000  Level Montreal Center
07:20PM 51.0667 -65.8167 56° Northeast 380 437 39,000  Level Montreal Center
07:21PM 51.1500 -65.6667 48° Northeast 380 437 39,000  Level Montreal Center
07:22PM 51.2000 -65.5500 56° Northeast 380 437 39,000  Level Montreal Center
07:22PM 51.2500 -65.5000 32° Northeast 380 437 39,000  Level Moncton Center
07:23PM 51.3000 -65.3667 59° Northeast 380 437 39,000  Level Moncton Center
07:24PM 51.3667 -65.2333 51° Northeast 380 437 39,000  Level Moncton Center
07:25PM 51.4167 -65.0667 64° Northeast 380 437 39,000  Level Moncton Center
07:26PM 51.4833 -64.9333 51° Northeast 390 449 39,000  Level Moncton Center
07:27PM 51.5500 -64.8000 51° Northeast 390 449 39,000  Level Moncton Center
07:28PM 51.6000 -64.6667 59° Northeast 390 449 39,000  Level Moncton Center
07:29PM 51.6667 -64.5000 57° Northeast 390 449 39,000  Level Moncton Center
07:30PM 51.7333 -64.3667 51° Northeast 390 449 39,000  Level Moncton Center
07:31PM 51.8000 -64.2333 51° Northeast 390 449 39,000  Level Moncton Center
07:32PM 51.8500 -64.0667 64° Northeast 390 449 39,000  Level Moncton Center
07:33PM 51.9167 -63.9333 51° Northeast 390 449 39,000  Level Moncton Center
07:34PM 51.9833 -63.8000 51° Northeast 390 449 39,000  Level Moncton Center
07:35PM 52.0333 -63.6333 64° Northeast 400 460 39,000  Level Moncton Center
07:36PM 52.1000 -63.4667 57° Northeast 400 460 39,000  Level Moncton Center
07:37PM 52.1667 -63.3333 51° Northeast 400 460 39,000  Level Moncton Center
07:38PM 52.2333 -63.1667 57° Northeast 400 460 39,000 -60 Level Moncton Center
07:39PM 52.3000 -63.0333 51° Northeast 400 460 38,900 -1,020 Descending Moncton Center
07:40PM 52.3667 -62.8667 57° Northeast 420 483 37,000 -1,980 Descending Moncton Center
07:41PM 52.4167 -62.7000 64° Northeast 440 506 35,000 -1,980 Descending Moncton Center
07:42PM 52.4833 -62.5333 57° Northeast 440 506 33,100 -1,980 Descending Moncton Center
07:43PM 52.5500 -62.3667 57° Northeast 440 506 31,100 -1,980 Descending Moncton Center
07:44PM 52.6167 -62.2000 57° Northeast 440 506 29,200 -1,980 Descending Moncton Center
07:45PM 52.6833 -62.0167 59° Northeast 420 483 27,200 -1,980 Descending Moncton Center
07:46PM 52.7500 -61.8833 50° Northeast 420 483 25,300 -1,860 Descending Moncton Center
07:47PM 52.8000 -61.7167 64° Northeast 420 483 23,500 -1,980 Descending Moncton Center
07:48PM 52.8667 -61.5500 56° Northeast 410 472 21,400 -2,100 Descending Moncton Center
07:49PM 52.9333 -61.4000 54° Northeast 400 460 19,400 -2,280 Descending Moncton Center
07:50PM 53.0000 -61.2500 54° Northeast 390 449 16,900 -2,460 Descending Moncton Center
07:51PM 53.0500 -61.1167 58° Northeast 370 426 14,500 -2,700 Descending Moncton Center
07:52PM 53.0833 -60.9667 70° East 350 403 11,500 -3,420 Descending Moncton Center
07:53PM 53.1333 -60.8333 58° Northeast 320 368 7,700 -3,960 Descending Moncton Center
07:54PM 53.1500 -60.7500 72° East 310 357 5,600 -3,060 Descending Montreal Center
07:55PM 53.1833 -60.6167 67° East 290 334 3,200 -1,500 Descending Montreal Center
07:55PM 53.2167 -60.6333 343° North 260 299 3,400 -660 Climbing Moncton Center
07:56PM 53.2500 -60.5333 61° Northeast 200 230 2,200 -1,020 Descending Moncton Center
07:57PM 53.2833 -60.4833 42° Northeast 160 184 1,400 -780 Descending Moncton Center
07:58PM 53.2833 -60.4167 90° East 140 161 700 -540 Descending Moncton Center
07:59PM 53.3000 -60.4000 31° Northeast 130 150 400 -300 Descending Moncton Center
08:01PM 53.3167 -60.4167 247° West  Level FlightAware Approximate
08:08PM 53.3192 -60.4258 247° West  Level Estimated
08:09PM 53.3167 -60.4167 247° West  Level FlightAware Approximate
08:10PM 53.3192 -60.4258 247° West  Level Estimated
08:11PM 53.3167 -60.4167 247° West  Level FlightAware Approximate
08:12PM 53.3192 -60.4258 247° West  Level Estimated
08:13PM 53.3167 -60.4167 247° West  Level FlightAware Approximate
08:14PM 53.3192 -60.4258 247° West  Level Estimated
08:15PM 53.3167 -60.4167 247° West  Level FlightAware Approximate
08:16PM 53.3192 -60.4258 247° West  Level Estimated